Time;durP1;ratioP1;P1;durP2;ratioP2;P2;SDS_P1;SDS_P2;PMS_P1;PMS_P2;Temp;Humidity;BMP_temperature;BMP_pressure;BME280_temperature;BME280_humidity;BME280_pressure;Samples;Min_cycle;Max_cycle;Signal;HPM_P1;HPM_P2
2022/11/04 00:04:01;;;;;;;0.00;0.00;;;;;;;9.60;100.00;100423.25;10461031;28;20043;-81
2022/11/04 00:09:05;;;;;;;0.00;0.00;;;;;;;9.68;100.00;100426.88;10454878;28;20045;-80
2022/11/04 00:14:08;;;;;;;0.32;0.20;;;;;;;9.71;100.00;100426.97;10457676;28;20423;-80
2022/11/04 00:19:10;;;;;;;2.83;1.38;;;;;;;9.71;100.00;100442.38;10457954;28;20060;-81
2022/11/04 00:29:43;;;;;;;0.38;0.30;;;;;;;9.77;100.00;100468.25;10438603;28;20081;-81
2022/11/04 00:34:45;;;;;;;0.52;0.52;;;;;;;9.75;100.00;100469.91;10467381;28;20048;-80
2022/11/04 00:39:47;;;;;;;1.40;0.95;;;;;;;9.75;100.00;100493.06;10451836;28;20106;-81
2022/11/04 00:44:48;;;;;;;1.50;0.60;;;;;;;9.75;100.00;100500.78;10424221;28;20123;-82
2022/11/04 00:49:50;;;;;;;1.15;0.22;;;;;;;9.68;100.00;100510.03;10428844;28;20077;-81
2022/11/04 00:54:51;;;;;;;0.93;0.57;;;;;;;9.58;100.00;100522.66;10423223;28;20461;-81
2022/11/04 00:59:53;;;;;;;1.38;0.90;;;;;;;9.56;100.00;100525.19;10429585;28;20069;-81
2022/11/04 01:04:54;;;;;;;0.28;0.20;;;;;;;9.57;100.00;100520.94;10448538;28;20036;-81
2022/11/04 01:09:56;;;;;;;0.55;0.25;;;;;;;9.49;100.00;100525.88;10431370;28;20040;-82
2022/11/04 01:14:58;;;;;;;0.57;0.22;;;;;;;9.40;100.00;100523.97;10443762;28;20478;-81
2022/11/04 01:19:59;;;;;;;0.45;0.45;;;;;;;9.34;100.00;100522.09;10447831;28;20152;-80
2022/11/04 01:25:01;;;;;;;0.35;0.35;;;;;;;9.19;100.00;100509.75;10423871;28;20076;-79
2022/11/04 01:30:03;;;;;;;0.22;0.20;;;;;;;9.13;100.00;100514.72;10447532;28;20124;-80
2022/11/04 01:35:06;;;;;;;2.15;0.50;;;;;;;9.12;100.00;100518.09;10435466;28;20451;-80
2022/11/04 01:40:08;;;;;;;0.00;0.00;;;;;;;9.04;100.00;100517.06;10442289;28;20469;-80
2022/11/04 01:45:14;;;;;;;1.10;0.43;;;;;;;8.98;100.00;100524.59;10455460;28;20045;-82
2022/11/04 01:50:23;;;;;;;0.95;0.45;;;;;;;8.87;100.00;100522.63;10464468;28;20076;-81
2022/11/04 01:55:30;;;;;;;0.52;0.13;;;;;;;8.77;100.00;100519.78;10434218;28;20405;-81
2022/11/04 02:00:32;;;;;;;0.35;0.17;;;;;;;8.67;100.00;100513.53;10446937;28;20103;-80
2022/11/04 02:05:34;;;;;;;0.43;0.25;;;;;;;8.68;100.00;100512.66;10454449;28;20051;-79
2022/11/04 02:10:38;;;;;;;0.45;0.40;;;;;;;8.67;100.00;100513.53;10459965;28;20120;-80
2022/11/04 02:16:06;;;;;;;0.55;0.40;;;;;;;8.59;100.00;100520.13;10446983;28;20128;-79
2022/11/04 02:21:51;;;;;;;0.40;0.40;;;;;;;8.52;100.00;100507.13;10453917;28;20046;-80
2022/11/04 02:27:18;;;;;;;3.70;0.45;;;;;;;8.48;100.00;100520.69;10431043;28;20142;-80
2022/11/04 02:32:37;;;;;;;0.00;0.00;;;;;;;8.60;100.00;100537.28;10458837;28;20071;-80
2022/11/04 02:38:09;;;;;;;0.73;0.55;;;;;;;8.59;100.00;100546.69;10469336;28;20059;-78
2022/11/04 02:43:22;;;;;;;0.50;0.32;;;;;;;8.56;100.00;100546.59;10458056;28;20069;-80
2022/11/04 02:48:35;;;;;;;1.15;0.50;;;;;;;8.59;100.00;100546.69;10456147;28;20834;-79
2022/11/04 02:53:48;;;;;;;1.42;0.77;;;;;;;8.57;100.00;100562.06;10471217;28;20080;-80
2022/11/04 02:59:03;;;;;;;0.50;0.50;;;;;;;8.61;100.00;100559.56;10450821;28;20068;-79
2022/11/04 03:04:12;;;;;;;0.47;0.38;;;;;;;8.52;100.00;100562.72;10459996;28;20127;-79
2022/11/04 03:09:15;;;;;;;2.03;1.57;;;;;;;8.50;100.00;100580.69;10438682;28;20163;-80
2022/11/04 03:14:22;;;;;;;1.45;0.82;;;;;;;8.56;100.00;100598.81;10447855;28;20871;-80
2022/11/04 03:19:43;;;;;;;0.70;0.70;;;;;;;8.62;100.00;100613.53;10432593;28;20128;-80
2022/11/04 03:24:46;;;;;;;1.65;0.63;;;;;;;8.70;100.00;100630.06;10436552;28;20055;-80
2022/11/04 03:29:57;;;;;;;1.63;1.33;;;;;;;8.75;100.00;100640.44;10408418;28;20077;-80
2022/11/04 03:34:59;;;;;;;0.63;0.63;;;;;;;8.69;100.00;100640.25;10437308;28;20056;-81
2022/11/04 03:40:02;;;;;;;1.38;0.70;;;;;;;8.71;100.00;100638.63;10440198;28;20125;-80
2022/11/04 03:45:05;;;;;;;0.77;0.47;;;;;;;8.73;100.00;100642.09;10453446;28;20099;-80
2022/11/04 03:50:22;;;;;;;2.20;1.08;;;;;;;8.76;100.00;100642.19;10441014;28;20049;-80
2022/11/04 03:55:34;;;;;;;1.63;1.17;;;;;;;8.75;100.00;100650.69;10422660;28;20088;-80
2022/11/04 04:00:46;;;;;;;1.23;0.68;;;;;;;8.81;100.00;100653.47;10451790;28;20076;-80
2022/11/04 04:06:02;;;;;;;1.98;0.88;;;;;;;8.82;100.00;100652.66;10444681;28;20618;-80
2022/11/04 04:11:16;;;;;;;0.75;0.47;;;;;;;8.82;100.00;100647.53;10454875;28;20051;-80
2022/11/04 04:16:26;;;;;;;1.27;0.82;;;;;;;8.83;100.00;100654.38;10453817;28;20041;-81
2022/11/04 04:21:34;;;;;;;1.60;1.50;;;;;;;8.80;100.00;100659.44;10440783;28;20044;-80
2022/11/04 04:31:59;;;;;;;3.78;1.67;;;;;;;8.89;100.00;100669.09;10457419;28;20037;-80
2022/11/04 04:37:24;;;;;;;1.20;0.45;;;;;;;8.82;100.00;100662.03;10454035;28;20041;-80
2022/11/04 04:47:52;;;;;;;0.40;0.40;;;;;;;8.79;100.00;100667.06;10462349;28;20391;-80
2022/11/04 04:52:57;;;;;;;0.63;0.38;;;;;;;8.72;100.00;100677.19;10457974;28;20057;-80
2022/11/04 04:57:58;;;;;;;0.20;0.20;;;;;;;8.57;100.00;100667.34;10437078;28;20049;-80
2022/11/04 05:03:00;;;;;;;2.63;1.40;;;;;;;8.47;100.00;100673.00;10447389;28;20116;-80
2022/11/04 05:08:06;;;;;;;0.88;0.65;;;;;;;8.40;100.00;100686.44;10453025;28;20072;-80
2022/11/04 05:13:28;;;;;;;1.98;1.50;;;;;;;8.28;100.00;100694.63;10449977;28;20267;-80
2022/11/04 05:18:30;;;;;;;1.42;1.02;;;;;;;8.09;100.00;100703.41;10440877;28;20185;-80
2022/11/04 05:23:32;;;;;;;1.30;0.47;;;;;;;8.01;100.00;100715.13;10437219;28;20033;-80
2022/11/04 05:28:33;;;;;;;0.10;0.10;;;;;;;8.01;100.00;100725.38;10453242;28;20055;-81
2022/11/04 05:33:35;;;;;;;0.10;0.10;;;;;;;7.79;100.00;100727.22;10452540;28;20523;-80
2022/11/04 05:38:37;;;;;;;0.55;0.40;;;;;;;7.80;100.00;100746.91;10451889;28;20092;-80
2022/11/04 05:43:38;;;;;;;0.20;0.20;;;;;;;7.73;100.00;100765.47;10453362;28;20123;-80
2022/11/04 05:48:40;;;;;;;1.35;0.55;;;;;;;7.75;100.00;100774.09;10447389;28;20084;-80
2022/11/04 05:53:41;;;;;;;0.80;0.50;;;;;;;7.78;100.00;100776.78;10418203;28;20083;-80
2022/11/04 05:58:43;;;;;;;1.15;0.55;;;;;;;7.75;100.00;100784.38;10440929;28;20098;-80
2022/11/04 06:03:45;;;;;;;0.45;0.38;;;;;;;7.53;100.00;100801.53;10457807;28;20133;-79
2022/11/04 06:08:46;;;;;;;0.45;0.35;;;;;;;7.42;100.00;100802.81;10458162;28;20449;-81
2022/11/04 06:13:48;;;;;;;0.22;0.13;;;;;;;7.36;100.00;100800.94;10459530;28;20048;-80
2022/11/04 06:18:50;;;;;;;0.77;0.38;;;;;;;7.30;100.00;100814.38;10459760;28;20144;-80
2022/11/04 06:23:55;;;;;;;0.30;0.17;;;;;;;7.28;100.00;100825.41;10459089;28;20045;-80
2022/11/04 06:28:57;;;;;;;0.25;0.15;;;;;;;7.24;100.00;100844.91;10456623;28;20049;-80
2022/11/04 06:33:58;;;;;;;0.10;0.10;;;;;;;7.14;100.00;100855.59;10458242;28;20048;-80
2022/11/04 06:39:00;;;;;;;0.55;0.32;;;;;;;7.20;100.00;100860.94;10443639;28;20433;-80
2022/11/04 06:44:05;;;;;;;1.13;0.68;;;;;;;7.27;100.00;100862.06;10438142;28;20041;-80
2022/11/04 06:49:12;;;;;;;0.70;0.43;;;;;;;7.05;100.00;100871.50;10423812;28;20103;-80
2022/11/04 06:54:15;;;;;;;0.60;0.43;;;;;;;6.91;100.00;100873.50;10433288;28;20072;-79
2022/11/04 06:59:19;;;;;;;0.47;0.43;;;;;;;6.82;100.00;100868.88;10443975;28;20064;-80
2022/11/04 07:04:20;;;;;;;1.88;0.65;;;;;;;6.73;100.00;100883.00;10460790;28;20131;-80
2022/11/04 07:09:22;;;;;;;1.65;0.55;;;;;;;6.91;100.00;100888.84;10462517;28;20073;-80
2022/11/04 07:14:23;;;;;;;0.35;0.32;;;;;;;7.07;100.00;100894.59;10431220;28;20095;-79
2022/11/04 07:19:25;;;;;;;1.00;0.43;;;;;;;7.30;100.00;100903.19;10466715;28;20132;-80
2022/11/04 07:24:26;;;;;;;0.90;0.63;;;;;;;7.38;100.00;100909.50;10464979;28;20123;-80
2022/11/04 07:29:28;;;;;;;0.17;0.17;;;;;;;7.37;100.00;100899.19;10428948;28;20038;-80
2022/11/04 07:34:29;;;;;;;2.65;1.45;;;;;;;7.54;100.00;100913.53;10434977;28;20068;-80
2022/11/04 07:39:31;;;;;;;0.10;0.10;;;;;;;7.37;100.00;100896.63;10421435;28;20132;-80
2022/11/04 07:44:33;;;;;;;0.10;0.10;;;;;;;7.40;100.00;100910.44;10454318;28;20548;-80
2022/11/04 07:49:34;;;;;;;0.20;0.20;;;;;;;7.50;100.00;100903.97;10420147;28;20136;-80
2022/11/04 07:54:36;;;;;;;2.35;0.52;;;;;;;7.93;100.00;100920.09;10425289;28;20102;-80
2022/11/04 07:59:38;;;;;;;0.17;0.13;;;;;;;8.35;100.00;100927.59;10449055;28;20049;-80
2022/11/04 08:04:39;;;;;;;2.05;0.88;;;;;;;8.83;100.00;100920.69;10440265;28;20120;-80
2022/11/04 08:09:41;;;;;;;0.65;0.13;;;;;;;9.15;100.00;100890.03;10438785;28;20041;-80
2022/11/04 08:14:43;;;;;;;1.35;0.38;;;;;;;9.38;100.00;100889.88;10448713;28;20032;-80
2022/11/04 08:19:44;;;;;;;0.88;0.52;;;;;;;9.18;100.00;100875.56;10444019;28;20163;-80
2022/11/04 08:24:46;;;;;;;0.55;0.43;;;;;;;9.28;100.00;100858.72;10464468;28;20044;-80
2022/11/04 08:29:47;;;;;;;0.47;0.35;;;;;;;9.74;100.00;100858.34;10448300;28;20040;-80
2022/11/04 08:34:49;;;;;;;0.40;0.40;;;;;;;9.60;100.00;100839.94;10446641;28;20065;-80
2022/11/04 08:39:50;;;;;;;2.17;0.73;;;;;;;9.74;100.00;100833.47;10446253;28;20083;-80
2022/11/04 08:44:52;;;;;;;0.13;0.13;;;;;;;10.17;100.00;100833.78;10422883;28;20404;-80
2022/11/04 08:49:54;;;;;;;0.20;0.20;;;;;;;9.77;100.00;100842.97;10435837;28;20136;-80
2022/11/04 08:54:55;;;;;;;0.03;0.03;;;;;;;9.32;100.00;100833.97;10428959;28;20079;-80
2022/11/04 08:59:58;;;;;;;0.82;0.43;;;;;;;9.81;100.00;100835.38;10424780;28;20052;-80
2022/11/04 09:05:00;;;;;;;0.40;0.40;;;;;;;10.09;100.00;100838.72;10447836;28;20124;-80
2022/11/04 09:10:04;;;;;;;0.13;0.13;;;;;;;10.09;100.00;100836.13;10445374;28;20049;-80
2022/11/04 09:15:07;;;;;;;5.47;1.23;;;;;;;10.11;100.00;100839.63;10422895;28;20167;-80
2022/11/04 09:20:09;;;;;;;0.17;0.13;;;;;;;10.52;100.00;100836.41;10436406;28;20069;-80
2022/11/04 09:25:10;;;;;;;0.35;0.10;;;;;;;10.51;100.00;100801.19;10446110;28;20117;-80
2022/11/04 09:30:12;;;;;;;0.35;0.30;;;;;;;10.56;100.00;100802.19;10443117;28;20055;-81
2022/11/04 09:35:16;;;;;;;0.40;0.30;;;;;;;10.74;100.00;100801.75;10436826;28;20608;-81
2022/11/04 09:40:21;;;;;;;0.55;0.55;;;;;;;10.54;100.00;100798.69;10438904;28;20041;-81
2022/11/04 09:45:28;;;;;;;0.10;0.10;;;;;;;10.73;100.00;100800.00;10420586;28;20124;-81
2022/11/04 09:50:43;;;;;;;0.35;0.25;;;;;;;10.56;100.00;100816.75;10441509;28;20056;-79
2022/11/04 09:56:00;;;;;;;0.98;0.45;;;;;;;10.50;100.00;100829.50;10438092;28;20493;-81
2022/11/04 10:01:11;;;;;;;1.08;0.10;;;;;;;10.75;100.00;100826.69;10450995;28;20045;-81
2022/11/04 10:06:24;;;;;;;0.22;0.20;;;;;;;10.85;100.00;100827.78;10443685;28;20060;-80
2022/11/04 10:11:43;;;;;;;0.13;0.13;;;;;;;11.04;100.00;100826.50;10443832;28;20080;-81
2022/11/04 10:17:38;;;;;;;0.45;0.45;;;;;;;11.29;100.00;100821.84;10434803;28;20461;-81
2022/11/04 10:23:01;;;;;;;1.92;0.30;;;;;;;11.25;100.00;100825.22;10438383;28;20288;-80
2022/11/04 10:28:04;;;;;;;0.25;0.22;;;;;;;11.30;100.00;100839.06;10438702;28;20048;-81
2022/11/04 10:33:34;;;;;;;0.57;0.28;;;;;;;12.56;100.00;100767.44;10441889;28;20062;-80
2022/11/04 10:38:56;;;;;;;0.07;0.07;;;;;;;12.55;100.00;100729.50;10442210;28;20500;-81
2022/11/04 10:44:07;;;;;;;0.00;0.00;;;;;;;12.20;100.00;100716.91;10439327;28;20473;-81
2022/11/04 10:49:25;;;;;;;0.45;0.30;;;;;;;11.28;100.00;100778.88;10447303;28;20075;-81
2022/11/04 10:54:29;;;;;;;0.43;0.30;;;;;;;11.18;100.00;100813.03;10446403;28;20037;-81
2022/11/04 10:59:58;;;;;;;1.23;0.55;;;;;;;11.01;100.00;100815.25;10425143;28;20153;-81
2022/11/04 11:05:30;;;;;;;1.52;0.85;;;;;;;11.22;100.00;100814.84;10450494;28;20068;-81
2022/11/04 11:10:33;;;;;;;0.90;0.38;;;;;;;12.59;100.00;100757.16;10441811;28;20079;-80
2022/11/04 11:15:37;;;;;;;0.80;0.52;;;;;;;12.31;100.00;100714.50;10439401;28;20488;-80
2022/11/04 11:20:39;;;;;;;1.05;0.77;;;;;;;12.49;100.00;100729.41;10441377;28;20087;-80
2022/11/04 11:25:48;;;;;;;1.08;0.65;;;;;;;13.21;100.00;100716.63;10444595;28;20479;-80
2022/11/04 11:30:57;;;;;;;0.20;0.20;;;;;;;12.27;100.00;100713.59;10448502;28;20132;-80
2022/11/04 11:36:03;;;;;;;4.07;2.08;;;;;;;12.29;100.00;100731.69;10439804;28;20048;-80
2022/11/04 11:41:17;;;;;;;1.50;0.60;;;;;;;11.91;100.00;100745.66;10451766;28;20533;-80
2022/11/04 11:46:32;;;;;;;1.30;0.75;;;;;;;11.96;100.00;100756.09;10411915;28;20053;-80
2022/11/04 11:51:38;;;;;;;0.43;0.35;;;;;;;11.86;100.00;100755.06;10439874;28;20120;-80
2022/11/04 11:56:43;;;;;;;0.50;0.50;;;;;;;11.93;100.00;100759.47;10443289;28;20117;-80
2022/11/04 12:02:40;;;;;;;0.80;0.32;;;;;;;11.72;100.00;100770.28;10429721;28;20497;-80
2022/11/04 12:07:53;;;;;;;0.25;0.25;;;;;;;11.53;100.00;100785.41;10437046;28;20041;-80
2022/11/04 12:13:22;;;;;;;0.45;0.45;;;;;;;12.56;100.00;100776.91;10436730;28;20033;-80
2022/11/04 12:18:45;;;;;;;4.22;1.40;;;;;;;13.49;100.00;100755.78;10455248;28;20128;-80
2022/11/04 12:24:13;;;;;;;2.25;1.42;;;;;;;12.29;100.00;100773.91;10413394;28;20069;-80
2022/11/04 12:29:36;;;;;;;2.33;1.27;;;;;;;12.21;100.00;100772.91;10449481;28;20122;-80
2022/11/04 12:34:49;;;;;;;0.80;0.50;;;;;;;13.10;100.00;100769.94;10424963;28;20037;-80
2022/11/04 12:40:09;;;;;;;0.73;0.50;;;;;;;13.65;100.00;100751.66;10425872;28;20132;-80
2022/11/04 12:45:35;;;;;;;0.83;0.60;;;;;;;13.70;100.00;100756.88;10441793;28;20096;-80
2022/11/04 12:50:57;;;;;;;0.25;0.20;;;;;;;13.77;100.00;100769.03;10430621;28;20045;-80
2022/11/04 12:56:08;;;;;;;0.95;0.40;;;;;;;12.58;100.00;100775.22;10442186;28;20504;-80
2022/11/04 13:01:18;;;;;;;1.27;0.70;;;;;;;12.15;100.00;100790.88;10449012;28;20403;-80
2022/11/04 13:06:29;;;;;;;1.33;0.40;;;;;;;11.75;100.00;100812.50;10451060;28;20404;-81
2022/11/04 13:11:38;;;;;;;0.52;0.40;;;;;;;11.87;100.00;100826.50;10441674;28;20480;-80
2022/11/04 13:16:42;;;;;;;1.40;1.03;;;;;;;11.78;100.00;100841.78;10436245;28;20444;-80
2022/11/04 13:21:44;;;;;;;0.28;0.28;;;;;;;11.53;100.00;100856.75;10435099;28;20060;-80
2022/11/04 13:26:46;;;;;;;0.30;0.30;;;;;;;11.59;100.00;100862.03;10466694;28;20045;-80
2022/11/04 13:32:07;;;;;;;0.43;0.30;;;;;;;11.44;100.00;100872.94;10468315;28;20528;-80
2022/11/04 13:37:56;;;;;;;0.60;0.55;;;;;;;11.40;100.00;100865.94;10447981;28;20550;-80
2022/11/04 13:43:40;;;;;;;1.35;0.47;;;;;;;11.67;100.00;100873.41;10457017;28;20057;-80
2022/11/04 13:49:17;;;;;;;0.30;0.30;;;;;;;11.45;100.00;100884.09;10454686;28;20045;-80
2022/11/04 13:54:30;;;;;;;2.00;0.73;;;;;;;11.87;100.00;100881.56;10436118;28;20036;-80
2022/11/04 13:59:32;;;;;;;0.43;0.25;;;;;;;12.44;100.00;100865.44;10438615;28;20063;-80
2022/11/04 14:04:35;;;;;;;1.05;0.80;;;;;;;12.39;100.00;100857.59;10438030;28;20045;-80
2022/11/04 14:09:43;;;;;;;1.15;0.88;;;;;;;12.54;100.00;100851.84;10441703;28;20049;-80
2022/11/04 14:15:02;;;;;;;0.60;0.45;;;;;;;12.25;100.00;100870.25;10454877;28;20495;-80
2022/11/04 14:20:04;;;;;;;0.83;0.47;;;;;;;12.09;100.00;100894.06;10455130;28;20162;-81
2022/11/04 14:25:31;;;;;;;0.75;0.63;;;;;;;12.48;100.00;100888.78;10450615;28;20033;-80
2022/11/04 14:30:47;;;;;;;0.88;0.47;;;;;;;11.67;100.00;100882.88;10449109;28;20060;-80
2022/11/04 14:35:52;;;;;;;0.40;0.20;;;;;;;11.72;100.00;100895.03;10400616;28;20053;-80
2022/11/04 14:41:24;;;;;;;2.58;1.52;;;;;;;11.22;100.00;100923.13;10424251;28;20556;-81
2022/11/04 14:46:30;;;;;;;0.85;0.40;;;;;;;11.37;100.00;100938.97;10435190;28;20077;-81
2022/11/04 14:51:39;;;;;;;0.57;0.40;;;;;;;11.16;100.00;100953.94;10440682;28;20144;-81
2022/11/04 14:56:41;;;;;;;1.30;0.70;;;;;;;10.89;100.00;100985.94;10455625;28;20049;-80
2022/11/04 15:01:42;;;;;;;0.70;0.40;;;;;;;10.87;100.00;101008.22;10455643;28;20053;-80
2022/11/04 15:06:53;;;;;;;1.02;0.20;;;;;;;10.91;100.00;101028.06;10465109;28;20091;-80
2022/11/04 15:17:31;;;;;;;3.72;1.23;;;;;;;10.94;100.00;101065.16;10452288;28;20075;-80
2022/11/04 15:22:33;;;;;;;0.20;0.20;;;;;;;10.83;100.00;101078.56;10455914;28;20037;-80
2022/11/04 15:27:34;;;;;;;0.68;0.57;;;;;;;10.67;100.00;101119.38;10453780;28;20057;-81
2022/11/04 15:32:36;;;;;;;0.95;0.30;;;;;;;10.67;100.00;101129.69;10455165;28;20144;-81
2022/11/04 15:37:40;;;;;;;0.50;0.50;;;;;;;10.64;100.00;101139.88;10463272;28;20515;-83
2022/11/04 15:42:44;;;;;;;1.83;1.10;;;;;;;10.57;100.00;101169.75;10431775;28;20140;-83
2022/11/04 15:47:45;;;;;;;0.43;0.43;;;;;;;10.47;100.00;101183.19;10444075;28;20464;-83
2022/11/04 15:52:50;;;;;;;0.63;0.40;;;;;;;10.15;100.00;101207.06;10433557;28;20566;-82
2022/11/04 15:57:54;;;;;;;0.38;0.28;;;;;;;9.95;100.00;101241.53;10435733;28;20080;-83
2022/11/04 16:02:58;;;;;;;0.25;0.25;;;;;;;9.82;100.00;101254.00;10461651;28;20033;-82
2022/11/04 16:08:21;;;;;;;1.60;0.85;;;;;;;9.79;100.00;101271.88;10440681;28;20447;-83
2022/11/04 16:13:23;;;;;;;0.52;0.45;;;;;;;9.89;100.00;101277.38;10442240;28;20083;-83
2022/11/04 16:18:30;;;;;;;0.98;0.60;;;;;;;9.66;100.00;101295.44;10434696;28;20072;-83
2022/11/04 16:23:46;;;;;;;1.73;0.73;;;;;;;9.81;100.00;101303.72;10444760;28;20033;-83
2022/11/04 16:28:52;;;;;;;1.55;0.45;;;;;;;9.73;100.00;101305.13;10424640;28;20136;-83
2022/11/04 16:33:54;;;;;;;0.88;0.68;;;;;;;9.44;100.00;101320.38;10443095;28;20044;-83
2022/11/04 16:38:58;;;;;;;1.13;0.65;;;;;;;9.68;100.00;101332.41;10416335;28;20067;-83
2022/11/04 16:44:02;;;;;;;1.60;0.47;;;;;;;9.69;100.00;101329.00;10430746;28;20116;-83
2022/11/04 16:49:04;;;;;;;0.75;0.40;;;;;;;9.57;100.00;101331.16;10441744;28;20049;-83
2022/11/04 16:54:05;;;;;;;0.40;0.40;;;;;;;9.40;100.00;101344.25;10452833;28;20082;-83
2022/11/04 16:59:10;;;;;;;0.20;0.20;;;;;;;9.34;100.00;101320.88;10424156;28;20125;-83
2022/11/04 17:04:13;;;;;;;0.05;0.05;;;;;;;9.36;100.00;101304.69;10450057;28;20053;-79
2022/11/04 17:09:21;;;;;;;0.13;0.13;;;;;;;9.39;100.00;101309.06;10449296;28;20071;-79
2022/11/04 17:14:23;;;;;;;0.00;0.00;;;;;;;9.39;100.00;101308.16;10448336;28;20036;-79
2022/11/04 17:19:25;;;;;;;0.45;0.35;;;;;;;9.35;100.00;101317.47;10436267;28;20081;-79
2022/11/04 17:24:34;;;;;;;0.32;0.15;;;;;;;9.31;100.00;101341.31;10427779;28;20056;-80
2022/11/04 17:29:36;;;;;;;1.08;0.60;;;;;;;9.29;100.00;101350.66;10420033;28;20069;-79
2022/11/04 17:34:39;;;;;;;0.63;0.10;;;;;;;9.17;100.00;101375.09;10427200;28;20053;-79
2022/11/04 17:39:43;;;;;;;0.68;0.60;;;;;;;9.16;100.00;101383.63;10424047;28;20049;-79
2022/11/04 17:44:44;;;;;;;0.20;0.10;;;;;;;9.18;100.00;101405.13;10435885;28;20433;-79
2022/11/04 17:49:46;;;;;;;0.52;0.20;;;;;;;9.23;100.00;101400.19;10441707;28;20044;-79
2022/11/04 17:54:48;;;;;;;1.13;0.30;;;;;;;9.18;100.00;101415.41;10437329;28;20493;-80
2022/11/04 17:59:51;;;;;;;0.95;0.60;;;;;;;9.09;100.00;101427.88;10438486;28;20041;-79
2022/11/04 18:04:53;;;;;;;1.08;0.88;;;;;;;9.06;100.00;101432.91;10440921;28;20083;-79
2022/11/04 18:09:55;;;;;;;2.60;0.88;;;;;;;9.03;100.00;101437.94;10450576;28;20426;-80
2022/11/04 18:14:59;;;;;;;1.73;0.57;;;;;;;9.03;100.00;101437.94;10443319;28;20072;-79
2022/11/04 18:20:00;;;;;;;0.25;0.20;;;;;;;8.93;100.00;101438.34;10451198;28;20087;-79
2022/11/04 18:25:03;;;;;;;0.40;0.40;;;;;;;8.86;100.00;101432.09;10435316;28;20560;-79
2022/11/04 18:30:07;;;;;;;0.28;0.25;;;;;;;8.79;100.00;101437.78;10458659;28;20127;-79
2022/11/04 18:35:10;;;;;;;0.28;0.28;;;;;;;8.79;100.00;101433.53;10437433;28;20116;-79
2022/11/04 18:40:12;;;;;;;0.85;0.52;;;;;;;8.65;100.00;101432.94;10454524;28;20045;-79
2022/11/04 18:45:13;;;;;;;1.45;1.10;;;;;;;8.54;100.00;101436.75;10445562;28;20037;-79
2022/11/04 18:50:15;;;;;;;0.57;0.40;;;;;;;8.42;100.00;101445.63;10420252;28;20068;-79
2022/11/04 18:55:16;;;;;;;0.80;0.63;;;;;;;8.30;100.00;101441.69;10430257;28;20459;-79
2022/11/04 19:00:18;;;;;;;0.32;0.20;;;;;;;8.17;100.00;101453.94;10468537;28;20045;-79
2022/11/04 19:05:19;;;;;;;0.08;0.08;;;;;;;8.02;100.00;101451.59;10486865;28;20025;-79
2022/11/04 19:10:21;;;;;;;1.02;0.30;;;;;;;7.92;100.00;101460.56;10457373;28;20072;-80
2022/11/04 19:15:23;;;;;;;0.98;0.32;;;;;;;7.82;100.00;101468.63;10429713;28;20046;-79
2022/11/04 19:20:24;;;;;;;0.03;0.03;;;;;;;7.76;100.00;101476.06;10443135;28;20501;-79
2022/11/04 19:25:26;;;;;;;0.00;0.00;;;;;;;7.60;100.00;101477.91;10453672;28;20128;-79
2022/11/04 19:30:28;;;;;;;0.30;0.20;;;;;;;7.43;100.00;101489.03;10456082;28;20049;-79
2022/11/04 19:35:30;;;;;;;0.00;0.00;;;;;;;7.42;100.00;101482.13;10454483;28;20041;-79
2022/11/04 19:40:32;;;;;;;5.72;0.22;;;;;;;7.32;100.00;101485.06;10453840;28;20059;-79
2022/11/04 19:45:37;;;;;;;0.30;0.30;;;;;;;7.23;100.00;101491.50;10425594;28;20100;-79
2022/11/04 19:50:44;;;;;;;1.17;0.65;;;;;;;7.14;100.00;101501.31;10434822;28;20144;-79
2022/11/04 19:55:48;;;;;;;0.20;0.13;;;;;;;7.01;100.00;101529.69;10442342;28;20037;-79
2022/11/04 20:00:51;;;;;;;0.03;0.03;;;;;;;6.75;100.00;101521.53;10427944;28;20487;-79
2022/11/04 20:05:53;;;;;;;0.05;0.05;;;;;;;6.77;100.00;101530.19;10451847;28;20032;-79
2022/11/04 20:10:55;;;;;;;0.25;0.03;;;;;;;6.73;100.00;101533.41;10441003;28;20074;-79
2022/11/04 20:15:56;;;;;;;0.17;0.17;;;;;;;6.65;100.00;101546.69;10441142;28;20041;-79
2022/11/04 20:21:02;;;;;;;0.05;0.00;;;;;;;6.55;100.00;101553.81;10437702;28;20057;-79
2022/11/04 20:26:23;;;;;;;1.13;0.20;;;;;;;6.45;100.00;101571.22;10439897;28;20047;-80
2022/11/04 20:31:27;;;;;;;0.10;0.10;;;;;;;6.23;100.00;101581.97;10440068;28;20493;-79
2022/11/04 20:36:29;;;;;;;0.57;0.45;;;;;;;6.18;100.00;101585.97;10444465;28;20504;-79
2022/11/04 20:41:31;;;;;;;0.40;0.38;;;;;;;6.18;100.00;101598.75;10433370;28;20044;-80
2022/11/04 20:46:33;;;;;;;0.32;0.25;;;;;;;6.14;100.00;101607.09;10431480;28;20041;-79
2022/11/04 20:51:41;;;;;;;0.60;0.20;;;;;;;5.91;100.00;101614.31;10432603;28;20045;-79
2022/11/04 20:56:43;;;;;;;0.13;0.13;;;;;;;5.75;100.00;101633.00;10428327;28;20042;-80
2022/11/04 21:01:47;;;;;;;0.10;0.10;;;;;;;5.56;100.00;101646.41;10437469;28;20086;-79
2022/11/04 21:06:50;;;;;;;0.20;0.20;;;;;;;5.75;100.00;101666.25;10434141;28;20053;-80
2022/11/04 21:11:51;;;;;;;0.47;0.40;;;;;;;5.50;100.00;101686.94;10438575;28;20059;-79
2022/11/04 21:16:53;;;;;;;0.10;0.10;;;;;;;5.42;100.00;101693.25;10451799;28;20319;-79
2022/11/04 21:21:55;;;;;;;1.30;0.82;;;;;;;5.59;100.00;101697.72;10446504;28;20080;-79
2022/11/04 21:26:57;;;;;;;0.20;0.20;;;;;;;5.43;100.00;101712.94;10423774;28;20124;-80
2022/11/04 21:31:59;;;;;;;3.72;0.45;;;;;;;5.49;100.00;101726.06;10438887;28;20132;-79
2022/11/04 21:37:00;;;;;;;0.47;0.30;;;;;;;5.38;100.00;101723.75;10432769;28;20501;-80
2022/11/04 21:42:02;;;;;;;1.80;0.38;;;;;;;5.38;100.00;101733.09;10436676;28;20098;-79
2022/11/04 21:47:04;;;;;;;0.63;0.10;;;;;;;5.27;100.00;101727.34;10435782;28;20055;-79
2022/11/04 21:52:05;;;;;;;0.68;0.52;;;;;;;5.44;100.00;101737.69;10435213;28;20292;-79
2022/11/04 21:57:07;;;;;;;0.82;0.40;;;;;;;5.50;100.00;101745.72;10446649;28;20140;-79
2022/11/04 22:02:09;;;;;;;0.20;0.10;;;;;;;5.53;100.00;101759.56;10433248;28;20069;-79
2022/11/04 22:07:11;;;;;;;0.63;0.32;;;;;;;5.47;100.00;101772.00;10450058;28;20160;-79
2022/11/04 22:12:12;;;;;;;0.28;0.28;;;;;;;5.44;100.00;101774.34;10441943;28;20120;-79
2022/11/04 22:17:14;;;;;;;0.45;0.30;;;;;;;5.45;100.00;101780.34;10446191;28;20203;-79
2022/11/04 22:22:15;;;;;;;0.80;0.77;;;;;;;5.47;100.00;101783.91;10442867;28;20038;-79
2022/11/04 22:27:17;;;;;;;0.35;0.32;;;;;;;5.35;100.00;101779.78;10455730;28;20052;-78
2022/11/04 22:32:18;;;;;;;1.60;0.25;;;;;;;5.30;100.00;101781.19;10462529;28;20462;-78
2022/11/04 22:37:20;;;;;;;0.40;0.40;;;;;;;5.36;100.00;101786.66;10460571;28;20420;-78
2022/11/04 22:42:21;;;;;;;0.50;0.30;;;;;;;5.36;100.00;101796.03;10460676;28;20127;-79
2022/11/04 22:47:26;;;;;;;0.47;0.35;;;;;;;5.38;100.00;101800.44;10461557;28;20056;-78
2022/11/04 22:52:28;;;;;;;0.40;0.22;;;;;;;5.28;100.00;101798.09;10432190;28;20049;-78
2022/11/04 22:57:36;;;;;;;0.35;0.35;;;;;;;5.15;100.00;101795.56;10460995;28;20052;-78
2022/11/04 23:02:40;;;;;;;0.73;0.65;;;;;;;5.18;100.00;101804.31;10480246;28;20140;-78
2022/11/04 23:07:42;;;;;;;0.52;0.43;;;;;;;5.21;100.00;101811.28;10488655;28;20049;-78
2022/11/04 23:39:53;;;;;;;0.38;0.32;;;;;;;4.52;100.00;101805.19;10432613;28;20090;-79
